Time;durP1;ratioP1;P1;durP2;ratioP2;P2;SDS_P1;SDS_P2;PMS_P1;PMS_P2;Temp;Humidity;BMP_temperature;BMP_pressure;BME280_temperature;BME280_humidity;BME280_pressure;Samples;Min_cycle;Max_cycle;Signal;HPM_P1;HPM_P2
2021/04/28 00:00:24;;;;;;;9.05;6.88;;;;;;;8.83;50.46;99411.66;5077751;28;20102;-83
2021/04/28 00:02:50;;;;;;;;;;;;;;;8.78;50.24;99409.28;5076101;28;20048;-82
2021/04/28 00:05:17;;;;;;;9.35;7.30;;;;;;;8.74;50.52;99402.47;5070916;28;19924;-82
2021/04/28 00:07:45;;;;;;;9.63;6.80;;;;;;;8.72;50.30;99404.34;5074966;28;20074;-81
2021/04/28 00:10:14;;;;;;;10.40;7.32;;;;;;;8.67;50.66;99395.81;5086918;28;20044;-82
2021/04/28 00:12:40;;;;;;;8.98;7.32;;;;;;;8.64;51.01;99401.28;5059147;28;20048;-82
2021/04/28 00:15:10;;;;;;;9.43;7.32;;;;;;;8.61;50.68;99400.59;5072972;28;20112;-82
2021/04/28 00:17:37;;;;;;;9.90;6.88;;;;;;;8.57;50.81;99399.91;5073718;28;20339;-82
2021/04/28 00:20:08;;;;;;;10.27;7.05;;;;;;;8.55;51.20;99398.28;5075681;28;20040;-82
2021/04/28 00:22:36;;;;;;;9.68;6.85;;;;;;;8.53;51.44;99392.22;5075112;28;20055;-83
2021/04/28 00:25:09;;;;;;;9.95;6.95;;;;;;;8.51;51.76;99389.66;5075553;28;20049;-83
2021/04/28 00:27:42;;;;;;;10.60;7.55;;;;;;;8.51;50.84;99389.66;5076268;28;20153;-82
2021/04/28 00:30:10;;;;;;;10.75;6.88;;;;;;;8.52;51.05;99379.97;5079831;28;20048;-83
2021/04/28 00:32:38;;;;;;;9.05;6.75;;;;;;;8.51;51.06;99388.81;5059900;28;20055;-82
2021/04/28 00:35:07;;;;;;;12.25;7.30;;;;;;;8.44;51.20;99397.06;5078338;28;20112;-82
2021/04/28 00:37:35;;;;;;;;;;;;;;;8.43;51.22;99394.53;5078813;28;20072;-82
2021/04/28 00:40:10;;;;;;;10.50;7.47;;;;;;;8.39;51.42;99392.97;5077915;28;19976;-82
2021/04/28 00:42:37;;;;;;;10.95;7.45;;;;;;;8.29;52.02;99379.41;5077971;28;20040;-82
2021/04/28 00:45:04;;;;;;;11.20;7.72;;;;;;;8.26;51.97;99384.84;5085556;28;20106;-83
2021/04/28 00:47:31;;;;;;;11.73;7.03;;;;;;;8.25;51.99;99384.91;5093031;28;20051;-83
2021/04/28 00:49:57;;;;;;;10.95;7.47;;;;;;;8.19;52.16;99372.03;5089885;28;20068;-82
2021/04/28 00:52:32;;;;;;;8.85;7.45;;;;;;;8.18;52.47;99371.22;5095011;28;20029;-82
2021/04/28 00:54:59;;;;;;;10.23;7.43;;;;;;;8.22;52.48;99379.81;5080877;28;20120;-82
2021/04/28 00:57:25;;;;;;;9.25;7.60;;;;;;;8.17;52.04;99372.16;5066118;28;20052;-81
2021/04/28 00:59:51;;;;;;;12.25;7.35;;;;;;;8.16;52.25;99373.09;5075673;28;20040;-81
2021/04/28 01:02:18;;;;;;;10.65;7.68;;;;;;;8.08;52.39;99370.00;5088686;28;20068;-82
2021/04/28 01:04:45;;;;;;;12.57;7.80;;;;;;;8.04;52.97;99364.03;5086850;28;20087;-82
2021/04/28 01:07:12;;;;;;;10.45;7.35;;;;;;;7.97;52.70;99367.94;5095393;28;20039;-82
2021/04/28 01:09:39;;;;;;;9.13;7.47;;;;;;;7.95;52.94;99366.31;5089527;28;20036;-81
2021/04/28 01:12:07;;;;;;;16.38;7.97;;;;;;;7.86;53.27;99362.38;5079358;28;20044;-83
2021/04/28 01:14:34;;;;;;;12.50;7.97;;;;;;;7.85;53.39;99373.84;5093054;28;20056;-81
2021/04/28 01:17:05;;;;;;;11.68;7.43;;;;;;;7.81;53.45;99360.91;5091388;28;20064;-82
2021/04/28 01:19:36;;;;;;;13.35;7.68;;;;;;;7.81;53.83;99374.94;5077587;28;20048;-83
2021/04/28 01:22:04;;;;;;;9.63;7.82;;;;;;;7.80;53.67;99369.75;5098334;28;20044;-83
2021/04/28 01:24:30;;;;;;;10.57;7.82;;;;;;;7.75;54.07;99377.88;5098914;28;20033;-83
2021/04/28 01:27:00;;;;;;;14.23;7.80;;;;;;;7.71;53.49;99371.09;5096893;28;20032;-83
2021/04/28 01:29:29;;;;;;;10.02;7.78;;;;;;;7.65;54.19;99366.13;5071953;28;20048;-82
2021/04/28 01:31:57;;;;;;;9.80;7.75;;;;;;;7.64;54.20;99367.03;5081148;28;20131;-82
2021/04/28 01:34:25;;;;;;;12.77;7.95;;;;;;;7.60;53.99;99368.13;5087709;28;20055;-83
2021/04/28 01:36:56;;;;;;;11.85;7.85;;;;;;;7.58;54.27;99367.34;5089814;28;20112;-82
2021/04/28 01:39:25;;;;;;;11.82;8.02;;;;;;;7.57;54.44;99368.28;5087627;28;20067;-81
2021/04/28 01:41:52;;;;;;;10.73;7.68;;;;;;;7.45;54.40;99361.00;5083253;28;20052;-81
2021/04/28 01:44:21;;;;;;;9.88;7.75;;;;;;;7.47;54.81;99361.78;5077822;28;20157;-81
2021/04/28 01:46:48;;;;;;;11.35;7.82;;;;;;;7.48;54.77;99368.75;5078124;28;20068;-80
2021/04/28 01:49:16;;;;;;;9.82;7.85;;;;;;;7.49;55.10;99365.19;5078290;28;20044;-81
2021/04/28 01:51:43;;;;;;;14.35;8.65;;;;;;;7.46;54.95;99370.59;5087618;28;20108;-79
2021/04/28 01:54:14;;;;;;;14.10;8.48;;;;;;;7.36;55.36;99362.34;5090912;28;20048;-80
2021/04/28 01:56:41;;;;;;;11.40;8.05;;;;;;;7.31;55.42;99362.56;5082389;28;20048;-81
2021/04/28 01:59:08;;;;;;;12.27;7.60;;;;;;;7.26;55.41;99359.28;5083432;28;20139;-82
2021/04/28 02:01:35;;;;;;;11.30;8.05;;;;;;;7.12;56.01;99342.47;5082375;28;20044;-82
2021/04/28 02:04:02;;;;;;;9.68;8.10;;;;;;;7.14;55.48;99354.63;5088137;28;20048;-82
2021/04/28 02:06:29;;;;;;;15.70;8.05;;;;;;;7.15;55.94;99350.22;5084306;28;20045;-81
2021/04/28 02:08:59;;;;;;;11.43;8.10;;;;;;;7.13;55.96;99352.94;5087689;28;20104;-80
2021/04/28 02:11:25;;;;;;;10.48;8.07;;;;;;;7.09;56.23;99356.63;5078626;28;20068;-79
2021/04/28 02:13:53;;;;;;;12.30;8.07;;;;;;;7.07;55.84;99355.88;5089063;28;20044;-80
2021/04/28 02:16:19;;;;;;;12.60;8.50;;;;;;;7.06;55.97;99354.19;5090986;28;20107;-80
2021/04/28 02:18:46;;;;;;;13.23;8.90;;;;;;;7.04;55.90;99356.88;5090866;28;20040;-80
2021/04/28 02:21:13;;;;;;;11.75;7.93;;;;;;;7.03;55.99;99349.06;5097918;28;20055;-80
2021/04/28 02:23:42;;;;;;;11.57;8.00;;;;;;;7.03;56.12;99349.06;5092099;28;20053;-81
2021/04/28 02:26:08;;;;;;;10.55;8.32;;;;;;;7.02;56.37;99342.09;5092907;28;20068;-80
2021/04/28 02:28:35;;;;;;;10.90;8.02;;;;;;;7.03;56.06;99338.53;5094150;28;20041;-82
2021/04/28 02:31:02;;;;;;;10.30;8.13;;;;;;;7.00;56.00;99331.63;5090731;28;20067;-81
2021/04/28 02:33:28;;;;;;;11.75;8.10;;;;;;;6.98;56.89;99328.22;5087729;28;20068;-80
2021/04/28 02:35:56;;;;;;;10.82;8.25;;;;;;;7.00;55.73;99322.88;5088494;28;20068;-79
2021/04/28 02:38:38;;;;;;;11.45;8.23;;;;;;;6.97;56.33;99325.66;5089940;28;20064;-80
2021/04/28 02:41:05;;;;;;;10.27;7.90;;;;;;;6.95;56.41;99316.97;5087044;28;20060;-82
2021/04/28 02:43:34;;;;;;;11.60;7.90;;;;;;;6.92;56.20;99319.78;5091629;28;20079;-81
2021/04/28 02:46:03;;;;;;;;;;;;;;;6.91;56.71;99318.09;5088823;28;20052;-81
2021/04/28 02:48:31;;;;;;;8.70;7.43;;;;;;;6.86;56.76;99312.19;5080729;28;19920;-81
2021/04/28 02:50:58;;;;;;;13.77;8.70;;;;;;;6.82;56.37;99315.88;5078761;28;20059;-80
2021/04/28 02:53:27;;;;;;;11.25;8.40;;;;;;;6.76;56.83;99316.19;5060790;28;20056;-82
2021/04/28 02:55:56;;;;;;;12.68;8.93;;;;;;;6.72;57.19;99306.75;5077677;28;20043;-81
2021/04/28 02:58:22;;;;;;;8.93;7.85;;;;;;;6.66;56.70;99306.09;5084006;28;20151;-80
2021/04/28 03:00:50;;;;;;;12.02;8.95;;;;;;;6.72;57.19;99317.25;5090171;28;20469;-79
2021/04/28 03:03:17;;;;;;;10.73;8.20;;;;;;;6.69;57.23;99316.47;5084445;28;20076;-79
2021/04/28 03:05:43;;;;;;;14.00;8.55;;;;;;;6.66;57.32;99314.00;5086030;28;20464;-82
2021/04/28 03:08:09;;;;;;;11.80;8.70;;;;;;;6.58;57.66;99310.03;5095377;28;20079;-80
2021/04/28 03:10:38;;;;;;;13.60;9.00;;;;;;;6.53;57.98;99318.16;5091586;28;20028;-81
2021/04/28 03:13:04;;;;;;;12.05;8.98;;;;;;;6.44;57.86;99310.69;5091105;28;20100;-83
2021/04/28 03:15:30;;;;;;;12.23;8.50;;;;;;;6.44;57.50;99310.69;5095646;28;20058;-81
2021/04/28 03:17:58;;;;;;;10.73;8.25;;;;;;;6.45;58.29;99308.94;5092267;28;20036;-83
2021/04/28 03:20:28;;;;;;;11.52;8.07;;;;;;;6.44;57.88;99310.69;5089265;28;20059;-81
2021/04/28 03:22:55;;;;;;;13.20;8.27;;;;;;;6.44;58.12;99310.69;5092662;28;20096;-82
2021/04/28 03:25:22;;;;;;;11.13;8.52;;;;;;;6.42;58.33;99312.56;5099210;28;21479;-82
2021/04/28 03:27:49;;;;;;;12.60;8.50;;;;;;;6.47;58.23;99315.78;5090488;28;20049;-83
2021/04/28 03:30:16;;;;;;;11.95;8.45;;;;;;;6.49;57.94;99313.94;5088020;28;20082;-82
2021/04/28 03:32:43;;;;;;;17.33;8.70;;;;;;;6.51;57.69;99320.00;5082737;28;20075;-82
2021/04/28 03:35:10;;;;;;;10.63;8.32;;;;;;;6.42;57.16;99295.91;5060555;28;20049;-83
2021/04/28 03:37:38;;;;;;;13.18;8.30;;;;;;;6.51;57.46;99319.13;5078999;28;20040;-83
2021/04/28 03:40:06;;;;;;;11.20;8.20;;;;;;;6.49;57.44;99311.31;5077982;28;20559;-83
2021/04/28 03:42:33;;;;;;;10.50;8.38;;;;;;;6.50;57.65;99315.66;5079971;28;20116;-83
2021/04/28 03:44:59;;;;;;;11.02;8.45;;;;;;;6.54;57.67;99313.75;5076094;28;20075;-83
2021/04/28 03:47:26;;;;;;;11.07;8.20;;;;;;;6.48;57.02;99311.38;5080014;28;20072;-83
2021/04/28 03:49:52;;;;;;;11.07;8.35;;;;;;;6.43;57.32;99301.09;5080287;28;20108;-82
2021/04/28 03:52:18;;;;;;;14.55;8.20;;;;;;;6.51;57.31;99319.13;5086225;28;20044;-82
2021/04/28 03:54:46;;;;;;;11.45;8.45;;;;;;;6.48;57.32;99317.50;5065747;28;20060;-81
2021/04/28 03:57:12;;;;;;;10.68;8.50;;;;;;;6.50;57.42;99320.06;5080418;28;20044;-82
2021/04/28 03:59:38;;;;;;;12.13;7.78;;;;;;;6.50;57.89;99323.53;5081889;28;20050;-82
2021/04/28 04:02:05;;;;;;;11.95;8.38;;;;;;;6.49;56.97;99318.34;5078827;28;20041;-83
2021/04/28 04:04:36;;;;;;;9.68;7.90;;;;;;;6.47;57.27;99326.31;5079291;28;20048;-83
2021/04/28 04:07:03;;;;;;;10.77;8.27;;;;;;;6.35;57.38;99303.22;5068853;28;20074;-84
2021/04/28 04:09:32;;;;;;;10.90;8.02;;;;;;;6.39;57.19;99307.44;5084665;28;20071;-83
2021/04/28 04:11:59;;;;;;;11.32;8.10;;;;;;;6.39;57.29;99307.44;5082035;28;20044;-83
2021/04/28 04:14:27;;;;;;;10.75;8.20;;;;;;;6.41;57.50;99313.47;5068207;28;20054;-83
2021/04/28 04:16:53;;;;;;;10.40;7.63;;;;;;;6.38;57.03;99305.72;5079226;28;20052;-83
2021/04/28 04:19:20;;;;;;;10.32;7.53;;;;;;;6.48;56.84;99325.38;5082019;28;20060;-83
2021/04/28 04:21:47;;;;;;;11.88;8.15;;;;;;;6.48;56.54;99314.00;5081761;28;20052;-83
2021/04/28 04:24:13;;;;;;;13.07;8.40;;;;;;;6.54;57.10;99330.38;5068758;28;20056;-83
2021/04/28 04:26:40;;;;;;;11.38;8.30;;;;;;;6.51;57.03;99322.63;5089618;28;20070;-83
2021/04/28 04:29:06;;;;;;;11.63;8.35;;;;;;;6.52;57.16;99320.84;5084649;28;20515;-82
2021/04/28 04:31:32;;;;;;;11.38;8.18;;;;;;;6.48;56.88;99324.53;5076218;28;20531;-83
2021/04/28 04:33:59;;;;;;;12.80;7.63;;;;;;;6.50;57.06;99320.91;5059503;28;20536;-82
2021/04/28 04:36:28;;;;;;;11.07;8.25;;;;;;;6.48;56.53;99328.03;5077393;28;20048;-81
2021/04/28 04:38:58;;;;;;;9.18;7.63;;;;;;;6.50;56.61;99334.06;5060627;28;21309;-82
2021/04/28 04:41:26;;;;;;;11.63;7.70;;;;;;;6.53;56.27;99336.56;5083713;28;20071;-82
2021/04/28 04:43:54;;;;;;;14.38;8.13;;;;;;;6.53;56.41;99330.44;5091663;28;20048;-83
2021/04/28 04:46:21;;;;;;;9.88;8.05;;;;;;;6.58;56.19;99331.09;5058459;28;20044;-83
2021/04/28 04:48:47;;;;;;;11.05;7.97;;;;;;;6.47;56.29;99313.16;5075415;28;20051;-82
2021/04/28 04:51:14;;;;;;;9.45;7.72;;;;;;;6.56;56.29;99319.78;5079638;28;20053;-81
2021/04/28 04:53:40;;;;;;;12.25;7.90;;;;;;;6.61;56.04;99317.78;5079294;28;20063;-81
2021/04/28 04:56:07;;;;;;;13.20;7.95;;;;;;;6.68;56.46;99329.72;5088533;28;20353;-81
2021/04/28 04:58:34;;;;;;;11.15;8.40;;;;;;;6.77;55.81;99329.25;5094915;28;20055;-81
2021/04/28 05:01:03;;;;;;;12.45;8.45;;;;;;;6.83;55.43;99317.59;5084797;28;20541;-82
2021/04/28 05:03:32;;;;;;;11.93;8.40;;;;;;;6.78;55.78;99303.78;5083999;28;20044;-82
2021/04/28 05:05:59;;;;;;;11.23;7.90;;;;;;;6.89;55.01;99320.78;5083790;28;20155;-83
2021/04/28 05:08:26;;;;;;;9.52;7.65;;;;;;;6.95;55.29;99319.63;5065667;28;20522;-82
2021/04/28 05:10:53;;;;;;;11.90;8.02;;;;;;;6.96;54.15;99308.16;5084924;28;20040;-82
2021/04/28 05:13:20;;;;;;;10.70;7.93;;;;;;;7.01;54.66;99320.19;5084609;28;20600;-82
2021/04/28 05:15:47;;;;;;;11.23;7.93;;;;;;;6.94;54.40;99305.59;5079782;28;20085;-81
2021/04/28 05:18:13;;;;;;;15.57;8.45;;;;;;;7.05;54.19;99323.50;5065342;28;20044;-84
2021/04/28 05:20:40;;;;;;;11.48;7.97;;;;;;;7.07;54.41;99324.28;5093924;28;20040;-82
2021/04/28 05:23:08;;;;;;;10.18;7.93;;;;;;;7.11;54.11;99324.97;5094032;28;20047;-83
2021/04/28 05:25:42;;;;;;;10.70;8.05;;;;;;;7.06;54.17;99311.22;5087159;28;20041;-82
2021/04/28 05:28:08;;;;;;;10.75;7.82;;;;;;;7.14;54.02;99320.41;5061773;28;20067;-83
2021/04/28 05:30:35;;;;;;;11.68;7.55;;;;;;;7.30;53.98;99337.16;5067226;28;20067;-80
2021/04/28 05:33:05;;;;;;;10.90;7.63;;;;;;;7.38;53.74;99334.13;5087862;28;20048;-82
2021/04/28 05:35:31;;;;;;;15.13;8.82;;;;;;;7.36;53.08;99328.94;5093226;28;20053;-83
2021/04/28 05:38:01;;;;;;;10.85;7.50;;;;;;;7.43;53.28;99331.25;5079551;28;20467;-83
2021/04/28 05:40:28;;;;;;;12.35;7.85;;;;;;;7.43;53.04;99320.72;5079778;28;20048;-83
2021/04/28 05:42:54;;;;;;;9.10;7.40;;;;;;;7.48;52.96;99323.97;5078000;28;20052;-82
2021/04/28 05:45:20;;;;;;;12.68;7.93;;;;;;;7.62;52.38;99324.13;5077909;28;21559;-82
2021/04/28 05:47:47;;;;;;;12.82;8.10;;;;;;;7.62;52.56;99332.00;5075798;28;20045;-83
2021/04/28 05:50:15;;;;;;;14.60;8.20;;;;;;;7.67;52.36;99335.28;5076642;28;20362;-82
2021/04/28 05:52:42;;;;;;;14.75;8.27;;;;;;;7.66;52.43;99315.13;5080002;28;20098;-82
2021/04/28 05:55:11;;;;;;;15.35;8.07;;;;;;;7.88;52.23;99335.91;5088518;28;20053;-82
2021/04/28 05:57:43;;;;;;;11.60;8.18;;;;;;;8.01;51.95;99324.66;5093912;28;21466;-80
2021/04/28 06:01:28;;;;;;;13.30;7.50;;;;;;;8.18;51.61;99336.09;5077908;28;20039;-81
2021/04/28 06:03:55;;;;;;;13.00;7.18;;;;;;;8.33;51.13;99322.97;5078662;28;20049;-81
2021/04/28 06:06:25;;;;;;;13.05;7.63;;;;;;;8.51;50.42;99331.63;5080594;28;20052;-82
2021/04/28 06:08:52;;;;;;;;;;;;;;;8.65;50.10;99329.09;5077830;28;20044;-81
2021/04/28 06:11:20;;;;;;;11.43;7.90;;;;;;;8.78;49.60;99319.53;5076758;28;20023;-82
2021/04/28 06:13:48;;;;;;;10.75;8.18;;;;;;;8.99;48.88;99322.72;5081672;28;20096;-82
2021/04/28 06:16:16;;;;;;;13.23;7.78;;;;;;;9.15;48.32;99320.03;5076248;28;20574;-82
2021/04/28 06:18:45;;;;;;;10.35;6.75;;;;;;;9.81;47.66;99319.63;5078763;28;20072;-81
2021/04/28 06:21:17;;;;;;;9.38;5.90;;;;;;;11.95;45.89;99307.38;5074919;28;20056;-83
2021/04/28 06:23:44;;;;;;;10.68;6.72;;;;;;;13.87;38.09;99317.94;5076391;28;20517;-82
2021/04/28 06:26:11;;;;;;;7.45;6.47;;;;;;;15.26;35.08;99315.63;5079904;28;20078;-82
2021/04/28 06:28:42;;;;;;;10.77;7.20;;;;;;;16.19;32.99;99320.16;5086203;28;20090;-84
2021/04/28 06:31:10;;;;;;;9.40;6.20;;;;;;;17.01;32.21;99323.53;5080976;28;20056;-84
2021/04/28 06:33:42;;;;;;;10.38;6.28;;;;;;;17.71;30.53;99312.56;5083375;28;20036;-84
2021/04/28 06:36:10;;;;;;;9.38;7.15;;;;;;;18.23;28.93;99313.00;5088277;28;20048;-83
2021/04/28 06:38:40;;;;;;;9.23;6.40;;;;;;;18.88;28.22;99313.84;5076737;28;20117;-84
2021/04/28 06:41:07;;;;;;;7.57;6.13;;;;;;;19.04;27.53;99314.00;5076004;28;20044;-82
2021/04/28 06:43:36;;;;;;;8.70;6.18;;;;;;;18.69;27.44;99313.94;5083568;28;20040;-80
2021/04/28 06:46:09;;;;;;;7.97;6.60;;;;;;;18.31;28.31;99307.75;5092019;28;20122;-84
2021/04/28 06:48:38;;;;;;;10.55;6.40;;;;;;;17.87;28.76;99294.06;5080959;28;20466;-83
2021/04/28 06:51:05;;;;;;;7.50;6.10;;;;;;;18.46;28.78;99308.09;5083650;28;20059;-82
2021/04/28 06:53:32;;;;;;;9.50;6.68;;;;;;;19.16;27.29;99302.06;5086053;28;20538;-83
2021/04/28 06:55:58;;;;;;;11.23;6.30;;;;;;;19.45;26.42;99288.38;5084675;28;20074;-82
2021/04/28 06:58:30;;;;;;;12.15;9.30;;;;;;;19.60;26.99;99297.59;5074099;28;20045;-84
2021/04/28 07:00:56;;;;;;;;;;;;;;;19.87;25.66;99311.88;5082638;28;20041;-82
2021/04/28 07:03:26;;;;;;;11.07;6.88;;;;;;;19.44;26.02;99299.28;5077805;28;19936;-82
2021/04/28 07:05:54;;;;;;;10.73;6.65;;;;;;;19.48;26.44;99298.81;5064436;28;20049;-82
2021/04/28 07:08:20;;;;;;;9.98;7.15;;;;;;;19.52;26.05;99297.53;5080341;28;20048;-83
2021/04/28 07:10:51;;;;;;;7.82;6.40;;;;;;;19.33;26.29;99303.06;5082118;28;20082;-81
2021/04/28 07:13:20;;;;;;;8.95;6.60;;;;;;;19.50;26.40;99302.22;5070716;28;20052;-84
2021/04/28 07:15:49;;;;;;;8.32;6.30;;;;;;;19.51;26.47;99303.06;5082288;28;20064;-81
2021/04/28 07:18:24;;;;;;;8.98;6.20;;;;;;;20.45;26.17;99295.13;5083210;28;20051;-82
2021/04/28 07:20:50;;;;;;;9.32;6.03;;;;;;;21.32;24.48;99313.56;5082969;28;20055;-80
2021/04/28 07:23:17;;;;;;;10.45;7.00;;;;;;;21.14;24.46;99310.13;5077413;28;20057;-80
2021/04/28 07:25:47;;;;;;;12.73;6.40;;;;;;;20.32;25.21;99290.97;5090735;28;20052;-84
2021/04/28 07:28:14;;;;;;;8.48;6.93;;;;;;;20.75;25.51;99291.03;5078988;28;20052;-79
2021/04/28 07:30:41;;;;;;;9.23;6.47;;;;;;;21.10;25.05;99288.06;5091613;28;20595;-84
2021/04/28 07:33:09;;;;;;;8.27;6.20;;;;;;;21.45;25.57;99294.19;5086428;28;20090;-82
2021/04/28 07:35:36;;;;;;;8.85;6.43;;;;;;;21.74;24.86;99294.53;5088741;28;20105;-83
2021/04/28 07:38:03;;;;;;;9.60;6.35;;;;;;;21.76;24.06;99295.19;5072442;28;20063;-83
2021/04/28 07:40:31;;;;;;;10.10;6.15;;;;;;;22.33;25.41;99300.50;5088937;28;20044;-83
2021/04/28 07:42:57;;;;;;;10.40;7.13;;;;;;;22.08;23.24;99291.63;5085136;28;20109;-83
2021/04/28 07:45:25;;;;;;;12.90;6.60;;;;;;;22.09;24.74;99276.31;5076440;28;20037;-80
2021/04/28 07:47:51;;;;;;;8.93;6.78;;;;;;;22.13;23.37;99291.13;5086141;28;20071;-82
2021/04/28 07:50:18;;;;;;;10.63;6.53;;;;;;;21.59;24.13;99293.53;5091027;28;20045;-83
2021/04/28 07:52:49;;;;;;;11.02;7.43;;;;;;;21.60;25.75;99277.19;5091098;28;20075;-82
2021/04/28 07:55:18;;;;;;;8.24;5.56;;;;;;;22.25;24.96;99262.78;5082464;28;940551;-84
2021/04/28 07:57:45;;;;;;;7.97;6.60;;;;;;;23.05;23.35;99276.91;5051281;28;20042;-84
2021/04/28 08:00:14;;;;;;;9.52;6.80;;;;;;;23.31;22.73;99274.69;5072585;28;20362;-83
2021/04/28 08:02:55;;;;;;;7.50;5.93;;;;;;;23.78;23.37;99290.69;5075110;28;20049;-84
2021/04/28 08:05:22;;;;;;;8.52;7.10;;;;;;;23.97;22.98;99283.94;5071328;28;20045;-83
2021/04/28 08:07:49;;;;;;;10.10;6.57;;;;;;;24.06;22.62;99282.84;5067687;28;20053;-81
2021/04/28 08:10:21;;;;;;;8.85;6.55;;;;;;;23.63;22.09;99275.47;5064447;28;20049;-82
2021/04/28 08:12:55;;;;;;;8.35;6.47;;;;;;;22.33;23.62;99289.72;5057774;28;20121;-83
2021/04/28 08:15:22;;;;;;;8.07;6.55;;;;;;;21.83;24.49;99282.72;5057159;28;20079;-83
2021/04/28 08:17:50;;;;;;;13.90;7.22;;;;;;;21.80;24.32;99268.75;5048657;28;20049;-84
2021/04/28 08:20:16;;;;;;;10.52;7.50;;;;;;;21.15;25.28;99283.03;5050877;28;20132;-83
2021/04/28 08:22:44;;;;;;;11.75;7.07;;;;;;;21.25;26.60;99275.66;5053348;28;20044;-83
2021/04/28 08:25:14;;;;;;;11.27;7.30;;;;;;;21.44;26.85;99265.56;5054111;28;20112;-83
2021/04/28 08:27:41;;;;;;;12.43;7.38;;;;;;;21.65;25.48;99274.84;5055098;28;22372;-84
2021/04/28 08:30:12;;;;;;;12.55;7.68;;;;;;;21.49;25.26;99265.94;5059736;28;20071;-84
2021/04/28 08:33:05;;;;;;;10.95;7.95;;;;;;;20.43;26.62;99257.66;5067808;28;20044;-84
2021/04/28 08:35:32;;;;;;;15.48;7.68;;;;;;;19.69;28.47;99274.31;5072369;28;20072;-84
2021/04/28 08:38:02;;;;;;;12.73;7.70;;;;;;;18.97;29.71;99261.09;5050825;28;20053;-84
2021/04/28 08:40:28;;;;;;;11.80;7.70;;;;;;;18.37;30.52;99261.59;5043943;28;20148;-84
2021/04/28 08:42:55;;;;;;;13.00;7.93;;;;;;;17.48;31.49;99253.09;5070637;28;20041;-83
2021/04/28 08:45:21;;;;;;;12.13;8.05;;;;;;;17.16;32.42;99244.53;5071826;28;20079;-83
2021/04/28 08:47:50;;;;;;;12.70;7.40;;;;;;;17.14;33.14;99250.06;5064838;28;20048;-82
2021/04/28 08:50:19;;;;;;;13.50;9.23;;;;;;;16.99;33.28;99248.81;5058629;28;20426;-83
2021/04/28 08:52:47;;;;;;;13.65;8.38;;;;;;;16.69;33.48;99240.88;5043279;28;20069;-83
2021/04/28 08:55:16;;;;;;;14.00;8.75;;;;;;;16.55;33.65;99242.09;5060444;28;20071;-83
2021/04/28 08:57:42;;;;;;;12.60;9.10;;;;;;;16.55;34.08;99262.63;5061163;28;20504;-82
2021/04/28 09:00:10;;;;;;;14.70;8.43;;;;;;;16.56;34.64;99261.63;5059569;28;20112;-88
2021/04/28 09:02:52;;;;;;;15.15;8.23;;;;;;;16.64;34.13;99264.50;5057621;28;20088;-82
2021/04/28 09:05:20;;;;;;;12.95;8.82;;;;;;;16.40;34.20;99265.69;5069263;28;20045;-79
2021/04/28 09:07:48;;;;;;;15.43;8.57;;;;;;;16.29;34.29;99259.59;5050335;28;20456;-80
2021/04/28 09:10:27;;;;;;;14.90;8.63;;;;;;;16.29;34.78;99260.44;5060916;28;20133;-81
2021/04/28 09:12:58;;;;;;;16.88;9.55;;;;;;;16.39;34.72;99249.78;5058286;28;20056;-83
2021/04/28 09:15:44;;;;;;;13.73;8.80;;;;;;;16.35;34.48;99249.22;5058902;28;20064;-82
2021/04/28 09:18:15;;;;;;;14.75;8.65;;;;;;;16.33;34.47;99243.19;5058034;28;20053;-79
2021/04/28 09:21:02;;;;;;;13.13;9.15;;;;;;;16.30;34.85;99246.13;5058426;28;20086;-79
2021/04/28 09:23:35;;;;;;;13.80;9.43;;;;;;;16.29;34.62;99249.75;5057768;28;20105;-79
2021/04/28 09:26:14;;;;;;;16.23;9.85;;;;;;;16.19;34.91;99240.88;5057120;28;20044;-80
2021/04/28 09:28:40;;;;;;;14.45;9.18;;;;;;;16.22;34.88;99239.75;5061621;28;20048;-79
2021/04/28 09:31:06;;;;;;;14.15;9.13;;;;;;;16.23;34.99;99228.94;5059456;28;20057;-80
2021/04/28 09:33:45;;;;;;;13.30;9.10;;;;;;;16.36;34.98;99228.72;5058574;28;20090;-79
2021/04/28 09:36:13;;;;;;;16.77;9.90;;;;;;;16.49;34.57;99226.63;5058071;28;20045;-78
2021/04/28 09:38:57;;;;;;;16.15;9.57;;;;;;;16.55;34.58;99239.41;5056741;28;20131;-79
2021/04/28 09:41:44;;;;;;;15.63;9.93;;;;;;;16.62;34.58;99231.69;5062507;28;20067;-79
2021/04/28 09:44:16;;;;;;;15.95;9.82;;;;;;;16.64;34.75;99235.13;5065670;28;20075;-81
2021/04/28 09:46:58;;;;;;;16.35;10.13;;;;;;;16.69;34.70;99223.00;5061815;28;20110;-77
2021/04/28 09:49:40;;;;;;;16.83;10.00;;;;;;;16.81;34.23;99213.03;5054350;28;20045;-78
2021/04/28 09:52:07;;;;;;;16.10;10.18;;;;;;;16.99;34.87;99218.53;5057943;28;20098;-79
2021/04/28 09:54:33;;;;;;;14.90;10.13;;;;;;;17.12;34.17;99211.91;5046441;28;20045;-79
2021/04/28 09:57:00;;;;;;;17.17;10.05;;;;;;;17.20;34.07;99219.22;5068170;28;20068;-81
2021/04/28 09:59:56;;;;;;;15.90;9.55;;;;;;;17.14;34.14;99209.09;5071328;28;20109;-81
2021/04/28 10:02:28;;;;;;;14.90;9.52;;;;;;;17.23;34.30;99207.38;5066940;28;20047;-78
2021/04/28 10:05:18;;;;;;;16.35;8.77;;;;;;;17.32;34.00;99204.69;5054224;28;20052;-79
2021/04/28 10:07:52;;;;;;;16.15;9.77;;;;;;;17.49;34.66;99197.75;5067398;28;20033;-78
2021/04/28 10:10:23;;;;;;;17.13;9.77;;;;;;;17.64;33.42;99201.69;5076591;28;20055;-79
2021/04/28 10:12:49;;;;;;;16.20;10.02;;;;;;;17.59;33.37;99195.06;5071630;28;20056;-78
2021/04/28 10:15:16;;;;;;;18.55;10.93;;;;;;;17.60;33.62;99189.56;5082666;28;20462;-79
2021/04/28 10:17:44;;;;;;;13.85;9.93;;;;;;;17.74;34.15;99196.31;5059644;28;20042;-77
2021/04/28 10:20:10;;;;;;;15.13;10.18;;;;;;;17.82;33.54;99189.22;5041959;28;20067;-80
2021/04/28 10:22:38;;;;;;;14.75;9.07;;;;;;;17.91;33.15;99183.97;5064926;28;20045;-80
2021/04/28 10:25:08;;;;;;;15.50;9.57;;;;;;;18.04;33.14;99184.47;5068872;28;20069;-81
2021/04/28 10:27:37;;;;;;;14.82;9.90;;;;;;;18.06;33.13;99187.84;5066067;28;20092;-80
2021/04/28 10:30:04;;;;;;;19.92;10.55;;;;;;;18.01;32.89;99179.41;5064987;28;20053;-78
2021/04/28 10:32:34;;;;;;;18.25;9.73;;;;;;;17.92;33.27;99159.75;5059899;28;20045;-78
2021/04/28 10:35:10;;;;;;;17.20;10.80;;;;;;;17.88;33.47;99177.94;5051335;28;20053;-80
2021/04/28 10:37:41;;;;;;;18.02;10.50;;;;;;;18.03;34.05;99167.56;5065810;28;20060;-80
2021/04/28 10:40:14;;;;;;;17.83;11.15;;;;;;;18.21;33.55;99156.88;5066243;28;20072;-78
2021/04/28 10:42:41;;;;;;;16.48;9.98;;;;;;;18.37;34.05;99158.91;5060913;28;20169;-80
2021/04/28 10:45:36;;;;;;;16.85;10.07;;;;;;;18.51;33.48;99148.50;5060243;28;20045;-80
2021/04/28 10:48:07;;;;;;;18.15;10.32;;;;;;;18.72;33.42;99153.59;5054754;28;20065;-80
2021/04/28 10:50:48;;;;;;;17.52;9.93;;;;;;;18.81;32.48;99149.13;5062195;28;20064;-79
2021/04/28 10:53:20;;;;;;;17.20;10.80;;;;;;;18.90;32.56;99150.88;5063948;28;20172;-77
2021/04/28 10:55:57;;;;;;;15.55;9.95;;;;;;;18.91;32.74;99148.03;5065140;28;20579;-80
2021/04/28 10:58:23;;;;;;;15.35;9.65;;;;;;;19.10;32.20;99144.34;5058314;28;20077;-78
2021/04/28 11:01:10;;;;;;;17.48;10.57;;;;;;;19.32;31.81;99140.31;5079975;28;20057;-79
2021/04/28 11:03:51;;;;;;;19.05;10.30;;;;;;;19.56;32.25;99143.16;5047797;28;20045;-82
2021/04/28 11:06:20;;;;;;;15.80;10.30;;;;;;;19.77;31.96;99131.19;5063484;28;20048;-79
2021/04/28 11:09:10;;;;;;;18.33;10.82;;;;;;;19.88;31.03;99126.34;5048225;28;20045;-79
2021/04/28 11:14:18;;;;;;;15.65;10.88;;;;;;;20.17;31.66;99125.94;5056811;28;20057;-80
2021/04/28 11:17:22;;;;;;;22.48;11.75;;;;;;;20.30;30.87;99122.81;5061589;28;20053;-79
2021/04/28 11:19:52;;;;;;;16.88;10.85;;;;;;;20.40;30.55;99112.78;5060615;28;20113;-78
2021/04/28 11:22:21;;;;;;;20.30;11.38;;;;;;;20.37;30.60;99115.78;5065852;28;20045;-79
2021/04/28 11:25:07;;;;;;;17.88;11.05;;;;;;;20.34;30.34;99110.69;5066932;28;20045;-79
2021/04/28 11:27:45;;;;;;;17.98;11.70;;;;;;;20.44;30.42;99108.75;5059338;28;20076;-80
2021/04/28 11:30:39;;;;;;;20.08;11.02;;;;;;;20.61;30.61;99113.13;5055411;28;20044;-80
2021/04/28 11:33:11;;;;;;;16.27;11.15;;;;;;;20.61;29.68;99113.13;5055960;28;20079;-79
2021/04/28 11:35:42;;;;;;;19.48;12.18;;;;;;;20.46;29.70;99117.47;5042666;28;20464;-82
2021/04/28 11:38:16;;;;;;;19.35;12.05;;;;;;;20.36;29.57;99099.78;5056121;28;20151;-81
2021/04/28 11:41:00;;;;;;;17.88;12.25;;;;;;;20.32;29.70;99107.31;5056237;28;20041;-80
2021/04/28 11:43:30;;;;;;;18.13;11.50;;;;;;;20.48;28.82;99103.84;5071047;28;20045;-82
2021/04/28 11:46:14;;;;;;;20.85;12.82;;;;;;;20.57;28.77;99092.97;5046771;28;20079;-78